Time;durP1;ratioP1;P1;durP2;ratioP2;P2;SDS_P1;SDS_P2;PMS_P1;PMS_P2;Temp;Humidity;BMP_temperature;BMP_pressure;BME280_temperature;BME280_humidity;BME280_pressure;Samples;Min_cycle;Max_cycle;Signal;HPM_P1;HPM_P2
2022/11/15 00:00:12;;;;;;;9.30;7.50;;;;;;;;;;109043;1263;22521;-27
2022/11/15 00:03:04;;;;;;;9.60;7.60;;;;;;;;;;109024;1261;22696;-27
2022/11/15 00:05:39;;;;;;;8.90;7.40;;;;;;;;;;108996;1261;25299;-27
2022/11/15 00:08:13;;;;;;;8.60;7.40;;;;;;;;;;109039;1257;25439;-27
2022/11/15 00:10:56;;;;;;;9.10;7.10;;;;;;;;;;109053;1259;22704;-27
2022/11/15 00:13:30;;;;;;;9.10;6.60;;;;;;;;;;109056;1259;25251;-27
2022/11/15 00:16:05;;;;;;;8.00;6.80;;;;;;;;;;109039;1259;22522;-27
2022/11/15 00:18:39;;;;;;;7.50;6.70;;;;;;;;;;109020;1256;22583;-27
2022/11/15 00:21:16;;;;;;;8.50;7.30;;;;;;;;;;108928;1262;25235;-27
2022/11/15 00:23:49;;;;;;;8.30;6.80;;;;;;;;;;109012;1262;22508;-27
2022/11/15 00:26:22;;;;;;;8.40;6.30;;;;;;;;;;109017;1262;22587;-27
2022/11/15 00:28:55;;;;;;;8.10;6.80;;;;;;;;;;109048;1259;22571;-27
2022/11/15 00:31:27;;;;;;;8.20;6.60;;;;;;;;;;109031;1260;22538;-27
2022/11/15 00:34:00;;;;;;;8.70;6.80;;;;;;;;;;109059;1260;25994;-27
2022/11/15 00:36:35;;;;;;;8.10;7.10;;;;;;;;;;109001;1260;22551;-27
2022/11/15 00:39:08;;;;;;;8.40;6.40;;;;;;;;;;109010;1262;22601;-27
2022/11/15 00:41:41;;;;;;;7.90;6.20;;;;;;;;;;109043;1260;22521;-27
2022/11/15 00:44:14;;;;;;;8.40;6.80;;;;;;;;;;108999;1262;22596;-27
2022/11/15 00:46:46;;;;;;;7.80;6.30;;;;;;;;;;108972;1253;23839;-27
2022/11/15 00:49:18;;;;;;;8.50;6.40;;;;;;;;;;109090;1259;22537;-27
2022/11/15 00:51:51;;;;;;;7.50;6.20;;;;;;;;;;108758;1259;392040;-27
2022/11/15 00:54:23;;;;;;;8.60;6.20;;;;;;;;;;109063;1259;22544;-27
2022/11/15 00:56:55;;;;;;;8.50;6.70;;;;;;;;;;108996;1260;22542;-27
2022/11/15 00:59:28;;;;;;;7.80;6.30;;;;;;;;;;109037;1261;22486;-27
2022/11/15 01:02:00;;;;;;;7.80;5.80;;;;;;;;;;109029;1263;22506;-27
2022/11/15 01:04:33;;;;;;;7.50;5.80;;;;;;;;;;109034;1260;22996;-27
2022/11/15 01:07:05;;;;;;;7.70;6.40;;;;;;;;;;109003;1262;22107;-27
2022/11/15 01:09:37;;;;;;;7.80;6.60;;;;;;;;;;109079;1260;22743;-27
2022/11/15 01:12:10;;;;;;;8.50;6.70;;;;;;;;;;109053;1260;22609;-27
2022/11/15 01:14:42;;;;;;;8.70;6.60;;;;;;;;;;109083;1258;22482;-27
2022/11/15 01:17:15;;;;;;;7.60;6.30;;;;;;;;;;109031;1256;22607;-27
2022/11/15 01:19:47;;;;;;;8.20;6.30;;;;;;;;;;109064;1262;22566;-27
2022/11/15 01:22:20;;;;;;;8.50;6.40;;;;;;;;;;109057;1259;22547;-27
2022/11/15 01:24:54;;;;;;;8.40;6.20;;;;;;;;;;109038;1259;22547;-27
2022/11/15 01:27:26;;;;;;;8.80;6.50;;;;;;;;;;108994;1260;22537;-27
2022/11/15 01:29:59;;;;;;;8.30;6.50;;;;;;;;;;109070;1253;22618;-27
2022/11/15 01:32:31;;;;;;;8.40;6.30;;;;;;;;;;109054;1253;22549;-27
2022/11/15 01:35:04;;;;;;;8.50;6.50;;;;;;;;;;109030;1260;22547;-27
2022/11/15 01:37:36;;;;;;;8.80;6.30;;;;;;;;;;109018;1260;22731;-27
2022/11/15 01:40:11;;;;;;;8.40;6.60;;;;;;;;;;109015;1262;22583;-27
2022/11/15 01:42:43;;;;;;;8.30;6.20;;;;;;;;;;109055;1253;23863;-27
2022/11/15 01:45:18;;;;;;;8.80;6.40;;;;;;;;;;109075;1262;22659;-27
2022/11/15 01:47:54;;;;;;;8.80;6.70;;;;;;;;;;109030;1262;25273;-27
2022/11/15 01:50:35;;;;;;;8.40;6.40;;;;;;;;;;109088;1259;22496;-27
2022/11/15 01:53:07;;;;;;;8.90;6.90;;;;;;;;;;109082;1260;22520;-27
2022/11/15 01:55:40;;;;;;;9.20;7.00;;;;;;;;;;109031;1259;22659;-27
2022/11/15 01:58:15;;;;;;;8.60;6.60;;;;;;;;;;109040;1260;22558;-27
2022/11/15 02:00:49;;;;;;;8.90;7.10;;;;;;;;;;109039;1262;22496;-27
2022/11/15 02:03:23;;;;;;;9.20;6.80;;;;;;;;;;109056;1262;22620;-27
2022/11/15 02:05:57;;;;;;;8.90;6.60;;;;;;;;;;109072;1262;22513;-27
2022/11/15 02:08:29;;;;;;;8.90;7.30;;;;;;;;;;109035;1262;22620;-27
2022/11/15 02:11:01;;;;;;;8.60;6.40;;;;;;;;;;109087;1260;25260;-27
2022/11/15 02:13:36;;;;;;;8.60;6.40;;;;;;;;;;109069;1259;25386;-27
2022/11/15 02:16:21;;;;;;;9.00;7.00;;;;;;;;;;109081;1253;22545;-27
2022/11/15 02:19:03;;;;;;;9.30;7.00;;;;;;;;;;109036;1259;22547;-27
2022/11/15 02:21:44;;;;;;;8.60;6.70;;;;;;;;;;109046;1253;22556;-27
2022/11/15 02:24:49;;;;;;;9.20;7.30;;;;;;;;;;109029;1261;22535;-27
2022/11/15 02:27:58;;;;;;;9.30;7.00;;;;;;;;;;109032;1253;22697;-27
2022/11/15 02:30:40;;;;;;;9.30;6.60;;;;;;;;;;108996;1261;22620;-27
2022/11/15 02:33:27;;;;;;;8.40;6.60;;;;;;;;;;109081;1259;23905;-27
2022/11/15 02:36:06;;;;;;;9.30;7.20;;;;;;;;;;109069;1259;25267;-27
2022/11/15 02:38:48;;;;;;;8.70;6.40;;;;;;;;;;109071;1259;22561;-27
2022/11/15 02:41:28;;;;;;;7.90;6.50;;;;;;;;;;109078;1260;22546;-27
2022/11/15 02:44:07;;;;;;;8.90;6.70;;;;;;;;;;109016;1259;22575;-27
2022/11/15 02:49:42;;;;;;;9.10;6.70;;;;;;;;;;109019;1262;22558;-27
2022/11/15 02:52:19;;;;;;;9.20;6.90;;;;;;;;;;109072;1259;22613;-27
2022/11/15 02:54:59;;;;;;;8.60;6.80;;;;;;;;;;109098;1259;22576;-27
2022/11/15 02:57:46;;;;;;;8.90;6.80;;;;;;;;;;109067;1259;24001;-27
2022/11/15 03:00:21;;;;;;;8.40;6.90;;;;;;;;;;108973;1260;24189;-27
2022/11/15 03:03:11;;;;;;;9.00;6.90;;;;;;;;;;109007;1262;22543;-27
2022/11/15 03:05:51;;;;;;;9.00;7.00;;;;;;;;;;109045;1253;24173;-27
2022/11/15 03:08:32;;;;;;;9.10;6.80;;;;;;;;;;109072;1260;25312;-27
2022/11/15 03:11:11;;;;;;;8.80;6.90;;;;;;;;;;109015;1259;22560;-27
2022/11/15 03:13:52;;;;;;;9.10;6.90;;;;;;;;;;109065;1260;22487;-27
2022/11/15 03:16:32;;;;;;;9.00;7.30;;;;;;;;;;109060;1260;22557;-27
2022/11/15 03:19:26;;;;;;;8.60;7.00;;;;;;;;;;109092;1260;22551;-27
2022/11/15 03:22:00;;;;;;;9.20;6.90;;;;;;;;;;109010;1261;22547;-27
2022/11/15 03:24:36;;;;;;;8.70;6.80;;;;;;;;;;109081;1261;22590;-27
2022/11/15 03:27:13;;;;;;;10.60;7.50;;;;;;;;;;109034;1261;22543;-27
2022/11/15 03:29:51;;;;;;;8.90;6.80;;;;;;;;;;109041;1263;22774;-27
2022/11/15 03:32:29;;;;;;;8.90;7.10;;;;;;;;;;109048;1260;22541;-27
2022/11/15 03:35:06;;;;;;;9.20;7.20;;;;;;;;;;109044;1260;23031;-27
2022/11/15 03:37:45;;;;;;;9.70;7.50;;;;;;;;;;109085;1259;22576;-27
2022/11/15 03:40:21;;;;;;;9.20;7.00;;;;;;;;;;109045;1257;22531;-27
2022/11/15 03:43:05;;;;;;;9.40;7.60;;;;;;;;;;109035;1260;22542;-27
2022/11/15 03:45:44;;;;;;;9.60;7.20;;;;;;;;;;109047;1261;22550;-27
2022/11/15 03:48:22;;;;;;;10.30;7.60;;;;;;;;;;109042;1257;23836;-27
2022/11/15 03:50:55;;;;;;;9.90;7.10;;;;;;;;;;109011;1253;22583;-27
2022/11/15 03:53:31;;;;;;;9.60;7.40;;;;;;;;;;109050;1259;22542;-27
2022/11/15 03:56:04;;;;;;;9.20;7.30;;;;;;;;;;109098;1260;22483;-27
2022/11/15 03:58:37;;;;;;;9.10;7.40;;;;;;;;;;109045;1259;22780;-27
2022/11/15 04:01:10;;;;;;;9.40;7.40;;;;;;;;;;109060;1260;22561;-27
2022/11/15 04:03:42;;;;;;;10.30;7.80;;;;;;;;;;109022;1261;22672;-27
2022/11/15 04:06:14;;;;;;;8.90;7.30;;;;;;;;;;109045;1263;22565;-27
2022/11/15 04:08:47;;;;;;;9.30;7.60;;;;;;;;;;109096;1257;22538;-27
2022/11/15 04:11:21;;;;;;;9.20;7.60;;;;;;;;;;109024;1261;22519;-27
2022/11/15 04:13:53;;;;;;;9.40;6.90;;;;;;;;;;109076;1259;22532;-27
2022/11/15 04:16:26;;;;;;;9.10;7.00;;;;;;;;;;109091;1259;22568;-27
2022/11/15 04:24:40;;;;;;;9.80;7.50;;;;;;;;;;109059;1262;22513;-27
2022/11/15 04:27:13;;;;;;;9.70;7.70;;;;;;;;;;109048;1262;22534;-27
2022/11/15 04:29:45;;;;;;;10.20;7.30;;;;;;;;;;108988;1262;22539;-27
2022/11/15 04:32:18;;;;;;;10.00;7.60;;;;;;;;;;109050;1253;25244;-27
2022/11/15 04:34:50;;;;;;;10.00;7.80;;;;;;;;;;109048;1260;22500;-27
2022/11/15 04:37:22;;;;;;;9.40;7.20;;;;;;;;;;109067;1260;22602;-27
2022/11/15 04:39:54;;;;;;;10.10;7.80;;;;;;;;;;109077;1259;25330;-27
2022/11/15 04:42:27;;;;;;;9.70;7.80;;;;;;;;;;109063;1260;22528;-27
2022/11/15 04:44:59;;;;;;;9.20;7.60;;;;;;;;;;109069;1263;22524;-27
2022/11/15 04:47:31;;;;;;;9.80;7.70;;;;;;;;;;109062;1261;22555;-27
2022/11/15 04:50:03;;;;;;;10.20;8.10;;;;;;;;;;109069;1260;23698;-27
2022/11/15 04:52:36;;;;;;;10.40;7.90;;;;;;;;;;109026;1260;22496;-27
2022/11/15 04:55:11;;;;;;;9.60;7.70;;;;;;;;;;109077;1259;22573;-27
2022/11/15 04:57:43;;;;;;;10.10;7.90;;;;;;;;;;109074;1260;22598;-27
2022/11/15 05:00:19;;;;;;;9.90;7.80;;;;;;;;;;109107;1259;23759;-27
2022/11/15 05:05:41;;;;;;;9.10;7.00;;;;;;;;;;109082;1262;22713;-27
2022/11/15 05:08:13;;;;;;;10.50;7.60;;;;;;;;;;109052;1263;22661;-27
2022/11/15 05:10:46;;;;;;;10.10;7.70;;;;;;;;;;109084;1263;23835;-27
2022/11/15 05:13:19;;;;;;;11.30;7.90;;;;;;;;;;109038;1260;23296;-27
2022/11/15 05:15:52;;;;;;;10.20;7.80;;;;;;;;;;109100;1260;22611;-27
2022/11/15 05:18:24;;;;;;;10.00;7.50;;;;;;;;;;109101;1260;22680;-27
2022/11/15 05:20:56;;;;;;;8.80;6.90;;;;;;;;;;109085;1259;22551;-27
2022/11/15 05:23:28;;;;;;;10.00;7.70;;;;;;;;;;109043;1260;25399;-27
2022/11/15 05:26:05;;;;;;;10.00;7.80;;;;;;;;;;109068;1262;24007;-27
2022/11/15 05:28:38;;;;;;;9.90;7.60;;;;;;;;;;109054;1260;22519;-27
2022/11/15 05:31:14;;;;;;;9.90;7.50;;;;;;;;;;109039;1253;25210;-27
2022/11/15 05:33:47;;;;;;;10.60;8.10;;;;;;;;;;109044;1260;22581;-27
2022/11/15 05:36:29;;;;;;;11.40;8.10;;;;;;;;;;109065;1259;25250;-27
2022/11/15 05:39:01;;;;;;;11.40;8.70;;;;;;;;;;109079;1259;22690;-27
2022/11/15 05:41:38;;;;;;;12.40;9.20;;;;;;;;;;109075;1260;25248;-27
2022/11/15 05:44:14;;;;;;;12.50;8.90;;;;;;;;;;109064;1260;25927;-27
2022/11/15 05:46:48;;;;;;;11.60;9.00;;;;;;;;;;109067;1261;22575;-27
2022/11/15 05:49:24;;;;;;;11.70;9.50;;;;;;;;;;108981;1262;22489;-27
2022/11/15 05:51:57;;;;;;;11.60;8.80;;;;;;;;;;109059;1260;22544;-27
2022/11/15 05:54:29;;;;;;;12.10;8.80;;;;;;;;;;109004;1260;22731;-27
2022/11/15 05:57:02;;;;;;;12.70;9.10;;;;;;;;;;109070;1260;22549;-27
2022/11/15 05:59:35;;;;;;;13.20;9.40;;;;;;;;;;109077;1259;22542;-27
2022/11/15 06:02:07;;;;;;;12.80;9.40;;;;;;;;;;109095;1260;24295;-27
2022/11/15 06:04:39;;;;;;;13.00;9.50;;;;;;;;;;109015;1260;25365;-27
2022/11/15 06:07:12;;;;;;;12.10;9.00;;;;;;;;;;109093;1253;22530;-27
2022/11/15 06:09:44;;;;;;;13.20;9.10;;;;;;;;;;109077;1262;22540;-27
2022/11/15 06:12:17;;;;;;;13.60;8.80;;;;;;;;;;109124;1261;22577;-27
2022/11/15 06:14:49;;;;;;;12.30;8.80;;;;;;;;;;109083;1260;22515;-27
2022/11/15 06:17:21;;;;;;;12.60;8.90;;;;;;;;;;109085;1259;22546;-27
2022/11/15 06:19:53;;;;;;;12.00;8.30;;;;;;;;;;109064;1260;22788;-27
2022/11/15 06:22:25;;;;;;;14.00;8.90;;;;;;;;;;109079;1260;22603;-27
2022/11/15 06:24:57;;;;;;;12.40;8.60;;;;;;;;;;109054;1260;22486;-27
2022/11/15 06:27:32;;;;;;;11.40;8.50;;;;;;;;;;109074;1257;22527;-27
2022/11/15 06:30:04;;;;;;;11.90;8.50;;;;;;;;;;109055;1261;22500;-27
2022/11/15 06:32:36;;;;;;;11.30;8.40;;;;;;;;;;109076;1261;22546;-27
2022/11/15 06:35:11;;;;;;;11.20;8.10;;;;;;;;;;109010;1259;22550;-27
2022/11/15 06:37:43;;;;;;;11.40;7.50;;;;;;;;;;109133;1260;25219;-27
2022/11/15 06:40:16;;;;;;;12.10;8.30;;;;;;;;;;109108;1253;25218;-27
2022/11/15 06:42:48;;;;;;;11.20;8.10;;;;;;;;;;109155;1260;22876;-27
2022/11/15 06:45:21;;;;;;;13.00;8.20;;;;;;;;;;109095;1260;23988;-27
2022/11/15 06:47:53;;;;;;;10.90;7.70;;;;;;;;;;109050;1263;22544;-27
2022/11/15 06:50:25;;;;;;;12.00;8.00;;;;;;;;;;109063;1253;22544;-27
2022/11/15 06:52:59;;;;;;;10.90;8.50;;;;;;;;;;109017;1261;23971;-27
2022/11/15 06:55:31;;;;;;;10.90;8.00;;;;;;;;;;109064;1253;23832;-27
2022/11/15 06:58:03;;;;;;;10.60;7.60;;;;;;;;;;109160;1259;21818;-27
2022/11/15 07:00:35;;;;;;;9.90;7.10;;;;;;;;;;109058;1257;25961;-27
2022/11/15 07:03:08;;;;;;;11.20;8.00;;;;;;;;;;109111;1259;22557;-27
2022/11/15 07:05:42;;;;;;;10.80;7.70;;;;;;;;;;109037;1259;22515;-27
2022/11/15 07:08:14;;;;;;;10.20;7.60;;;;;;;;;;109068;1263;22490;-27
2022/11/15 07:10:46;;;;;;;11.00;7.40;;;;;;;;;;109077;1263;22945;-27
2022/11/15 07:13:21;;;;;;;10.40;7.60;;;;;;;;;;109049;1263;22608;-27
2022/11/15 07:15:53;;;;;;;9.80;7.40;;;;;;;;;;109042;1261;22509;-27
2022/11/15 07:18:27;;;;;;;9.80;7.40;;;;;;;;;;109099;1260;25260;-27
2022/11/15 07:21:05;;;;;;;11.40;7.50;;;;;;;;;;109082;1260;22794;-27
2022/11/15 07:23:40;;;;;;;10.60;7.20;;;;;;;;;;109201;1256;23684;-27
2022/11/15 07:26:12;;;;;;;10.40;7.30;;;;;;;;;;109083;1260;22501;-27
2022/11/15 07:28:45;;;;;;;11.10;8.10;;;;;;;;;;109088;1261;22583;-27
2022/11/15 07:31:17;;;;;;;11.30;8.00;;;;;;;;;;109055;1253;25385;-27
2022/11/15 07:33:49;;;;;;;10.90;7.40;;;;;;;;;;109055;1261;22688;-27
2022/11/15 07:36:21;;;;;;;10.30;7.40;;;;;;;;;;109076;1260;22513;-27
2022/11/15 07:38:53;;;;;;;10.80;7.70;;;;;;;;;;109081;1259;22595;-27
2022/11/15 07:41:25;;;;;;;9.90;7.50;;;;;;;;;;109084;1260;23885;-27
2022/11/15 07:43:58;;;;;;;10.50;7.80;;;;;;;;;;109044;1260;22554;-27
2022/11/15 07:46:30;;;;;;;10.20;8.00;;;;;;;;;;109037;1262;22577;-27
2022/11/15 07:49:02;;;;;;;9.40;7.20;;;;;;;;;;109078;1260;23685;-27
2022/11/15 07:51:34;;;;;;;9.40;7.00;;;;;;;;;;109043;1262;22555;-27
2022/11/15 07:54:06;;;;;;;9.20;7.00;;;;;;;;;;109035;1262;22766;-27
2022/11/15 07:56:38;;;;;;;10.10;7.10;;;;;;;;;;109060;1253;22541;-27
2022/11/15 07:59:11;;;;;;;11.30;8.00;;;;;;;;;;109110;1260;22543;-27
2022/11/15 08:01:43;;;;;;;10.40;7.80;;;;;;;;;;109126;1260;22537;-27
2022/11/15 08:04:15;;;;;;;10.10;7.60;;;;;;;;;;109074;1253;22490;-27
2022/11/15 08:06:47;;;;;;;10.40;7.80;;;;;;;;;;109023;1259;22563;-27
2022/11/15 08:09:20;;;;;;;10.80;7.30;;;;;;;;;;109034;1261;22514;-27
2022/11/15 08:11:52;;;;;;;10.40;7.50;;;;;;;;;;109013;1261;22504;-27
2022/11/15 08:14:24;;;;;;;9.60;7.10;;;;;;;;;;109048;1262;23894;-27
2022/11/15 08:16:58;;;;;;;9.40;7.20;;;;;;;;;;109004;1253;24285;-27
2022/11/15 08:19:30;;;;;;;10.20;8.00;;;;;;;;;;109068;1257;23185;-27
2022/11/15 08:22:05;;;;;;;9.30;7.00;;;;;;;;;;109096;1260;23018;-29
2022/11/15 08:24:37;;;;;;;10.80;7.20;;;;;;;;;;109155;1260;25292;-29
2022/11/15 08:27:14;;;;;;;8.50;6.80;;;;;;;;;;109118;1260;22533;-29
2022/11/15 08:29:48;;;;;;;9.80;7.00;;;;;;;;;;109167;1261;22540;-29
2022/11/15 08:32:20;;;;;;;9.40;7.10;;;;;;;;;;109087;1259;22543;-29
2022/11/15 08:34:52;;;;;;;9.50;7.00;;;;;;;;;;109134;1261;22593;-29
2022/11/15 08:37:24;;;;;;;9.40;7.30;;;;;;;;;;109061;1260;22544;-29
2022/11/15 08:39:59;;;;;;;9.60;7.10;;;;;;;;;;109103;1260;22550;-29
2022/11/15 08:42:32;;;;;;;9.60;7.20;;;;;;;;;;109144;1260;22536;-29
2022/11/15 08:45:09;;;;;;;9.80;7.20;;;;;;;;;;109178;1263;22583;-29
2022/11/15 08:47:41;;;;;;;10.30;7.30;;;;;;;;;;109093;1259;25342;-29
2022/11/15 08:50:13;;;;;;;9.40;7.00;;;;;;;;;;109092;1262;23802;-29
2022/11/15 08:52:47;;;;;;;9.80;6.60;;;;;;;;;;108797;1262;417412;-29
2022/11/15 08:55:25;;;;;;;9.20;6.60;;;;;;;;;;109050;1261;22589;-29
2022/11/15 08:57:59;;;;;;;9.40;7.00;;;;;;;;;;109055;1260;22567;-29
2022/11/15 09:00:34;;;;;;;10.70;7.60;;;;;;;;;;109144;1259;25483;-29
2022/11/15 09:03:10;;;;;;;9.60;7.00;;;;;;;;;;109129;1260;22628;-29
2022/11/15 09:05:40;;;;;;;;;;;;;;;;;;109191;1260;22470;-29
2022/11/15 09:08:12;;;;;;;9.10;7.40;;;;;;;;;;109102;1259;25385;-29
2022/11/15 09:10:44;;;;;;;10.30;7.00;;;;;;;;;;109043;1262;22554;-29
2022/11/15 09:13:20;;;;;;;12.20;7.60;;;;;;;;;;109127;1260;22578;-29
2022/11/15 09:15:52;;;;;;;11.40;7.60;;;;;;;;;;109074;1261;22590;-29
2022/11/15 09:18:24;;;;;;;9.80;7.10;;;;;;;;;;109064;1260;22536;-29
2022/11/15 09:21:02;;;;;;;12.40;7.90;;;;;;;;;;109113;1260;23060;-29
2022/11/15 09:23:34;;;;;;;11.90;7.90;;;;;;;;;;109010;1256;22548;-28
2022/11/15 09:26:09;;;;;;;11.10;7.70;;;;;;;;;;109072;1263;23768;-30
2022/11/15 09:28:42;;;;;;;11.00;7.60;;;;;;;;;;108985;1263;22605;-29
2022/11/15 09:31:13;;;;;;;;;;;;;;;;;;108968;1256;22538;-30
2022/11/15 09:33:48;;;;;;;10.70;7.90;;;;;;;;;;109096;1266;22570;-28
2022/11/15 09:36:22;;;;;;;11.10;8.20;;;;;;;;;;109137;1260;23913;-29
2022/11/15 09:38:54;;;;;;;10.00;7.90;;;;;;;;;;109152;1261;24221;-29
2022/11/15 09:42:02;;;;;;;11.20;7.80;;;;;;;;;;109157;1260;22575;-28
2022/11/15 09:44:46;;;;;;;10.60;7.90;;;;;;;;;;109122;1264;22612;-29
2022/11/15 09:47:42;;;;;;;9.60;7.20;;;;;;;;;;109139;1259;22574;-29
2022/11/15 09:50:35;;;;;;;9.80;7.10;;;;;;;;;;109062;1262;22511;-29
2022/11/15 09:53:14;;;;;;;10.70;7.80;;;;;;;;;;108987;1262;22560;-29
2022/11/15 09:55:56;;;;;;;10.30;8.00;;;;;;;;;;108958;1262;22642;-28
2022/11/15 09:58:36;;;;;;;11.60;7.90;;;;;;;;;;109010;1265;22599;-29
2022/11/15 10:01:20;;;;;;;9.30;6.80;;;;;;;;;;109189;1260;23860;-29
2022/11/15 10:03:51;;;;;;;;;;;;;;;;;;109221;1261;22508;-29
2022/11/15 10:06:27;;;;;;;10.50;7.80;;;;;;;;;;109223;1259;25427;-29
2022/11/15 10:09:05;;;;;;;11.10;7.90;;;;;;;;;;109153;1260;22490;-29
2022/11/15 10:11:39;;;;;;;10.50;7.30;;;;;;;;;;109240;1261;23831;-30
2022/11/15 10:14:22;;;;;;;10.30;7.90;;;;;;;;;;109146;1260;22538;-30
2022/11/15 10:17:56;;;;;;;9.90;7.40;;;;;;;;;;109249;1266;23886;-30
2022/11/15 10:20:32;;;;;;;9.50;7.20;;;;;;;;;;108743;1271;22578;-30
2022/11/15 10:23:14;;;;;;;9.80;7.30;;;;;;;;;;109153;1266;22982;-30
2022/11/15 10:25:47;;;;;;;10.50;7.40;;;;;;;;;;109222;1266;22538;-30
2022/11/15 10:28:26;;;;;;;10.50;7.50;;;;;;;;;;109198;1260;22616;-30
2022/11/15 10:31:01;;;;;;;10.00;7.40;;;;;;;;;;109142;1265;25868;-30
2022/11/15 10:33:40;;;;;;;10.20;7.70;;;;;;;;;;109158;1260;22535;-30
2022/11/15 10:36:28;;;;;;;9.10;7.20;;;;;;;;;;109195;1261;22547;-29
2022/11/15 10:39:11;;;;;;;11.90;7.90;;;;;;;;;;109129;1261;22563;-30
2022/11/15 10:41:46;;;;;;;9.70;7.00;;;;;;;;;;109206;1263;22583;-30
2022/11/15 10:44:43;;;;;;;9.10;7.20;;;;;;;;;;109261;1260;22521;-30
2022/11/15 10:47:32;;;;;;;9.80;7.40;;;;;;;;;;109266;1261;22604;-30
2022/11/15 10:50:26;;;;;;;9.20;7.20;;;;;;;;;;109174;1261;22530;-29
2022/11/15 10:53:04;;;;;;;10.20;7.70;;;;;;;;;;109241;1262;22524;-30
2022/11/15 10:55:38;;;;;;;11.40;7.90;;;;;;;;;;109218;1265;22584;-30
2022/11/15 10:58:28;;;;;;;9.80;7.40;;;;;;;;;;109237;1259;22595;-29
2022/11/15 11:01:17;;;;;;;9.30;7.50;;;;;;;;;;109098;1266;22590;-30
2022/11/15 11:04:04;;;;;;;9.50;7.00;;;;;;;;;;109301;1266;22500;-31
2022/11/15 11:06:51;;;;;;;10.70;7.40;;;;;;;;;;109289;1264;22604;-30
2022/11/15 11:09:38;;;;;;;10.00;8.00;;;;;;;;;;109325;1265;22528;-30
2022/11/15 11:12:14;;;;;;;10.10;7.80;;;;;;;;;;109097;1263;22524;-30
2022/11/15 11:14:47;;;;;;;10.80;8.00;;;;;;;;;;109146;1260;22589;-31
2022/11/15 11:17:29;;;;;;;10.40;8.10;;;;;;;;;;109112;1259;22672;-30
2022/11/15 11:20:11;;;;;;;10.80;8.30;;;;;;;;;;109105;1267;22631;-30
2022/11/15 11:23:02;;;;;;;10.60;7.90;;;;;;;;;;109252;1264;22497;-30
2022/11/15 11:25:44;;;;;;;11.00;8.10;;;;;;;;;;109233;1256;25404;-30
2022/11/15 11:28:40;;;;;;;10.60;8.20;;;;;;;;;;109241;1266;22528;-30
2022/11/15 11:31:29;;;;;;;9.60;7.50;;;;;;;;;;109138;1264;22849;-29
2022/11/15 11:34:16;;;;;;;11.20;8.10;;;;;;;;;;109201;1266;24284;-28
2022/11/15 11:36:56;;;;;;;10.10;7.70;;;;;;;;;;108858;1265;22571;-28
2022/11/15 11:39:46;;;;;;;10.00;7.90;;;;;;;;;;109015;1266;22612;-28
2022/11/15 11:42:34;;;;;;;10.80;8.40;;;;;;;;;;109080;1266;22548;-29
2022/11/15 11:45:24;;;;;;;11.10;8.30;;;;;;;;;;109151;1259;22541;-29
2022/11/15 11:48:09;;;;;;;10.30;8.10;;;;;;;;;;109084;1260;22645;-28
2022/11/15 11:50:43;;;;;;;9.80;7.50;;;;;;;;;;109094;1266;22544;-29
2022/11/15 11:53:28;;;;;;;10.80;8.30;;;;;;;;;;109037;1262;22542;-28
2022/11/15 11:56:12;;;;;;;11.30;8.50;;;;;;;;;;109049;1260;22564;-30
2022/11/15 11:58:48;;;;;;;11.80;8.80;;;;;;;;;;109047;1268;22574;-30
2022/11/15 12:01:25;;;;;;;11.00;8.60;;;;;;;;;;109042;1263;22514;-30
2022/11/15 12:04:10;;;;;;;11.30;8.40;;;;;;;;;;109207;1261;23384;-29
2022/11/15 12:06:50;;;;;;;10.80;8.30;;;;;;;;;;109088;1263;22567;-30
2022/11/15 12:09:31;;;;;;;11.50;9.00;;;;;;;;;;109142;1266;22507;-30
2022/11/15 12:12:10;;;;;;;10.90;8.70;;;;;;;;;;109047;1263;22906;-29
2022/11/15 12:14:49;;;;;;;10.70;8.50;;;;;;;;;;109029;1257;22705;-29
2022/11/15 12:17:26;;;;;;;10.70;8.50;;;;;;;;;;109118;1266;23127;-29
2022/11/15 12:20:16;;;;;;;11.90;8.40;;;;;;;;;;109024;1263;22740;-30
2022/11/15 12:22:56;;;;;;;11.80;8.90;;;;;;;;;;108988;1261;22562;-29
2022/11/15 12:25:37;;;;;;;10.50;8.50;;;;;;;;;;109149;1266;22564;-30
2022/11/15 12:28:18;;;;;;;11.40;8.80;;;;;;;;;;109118;1266;25410;-30
2022/11/15 12:30:58;;;;;;;10.90;8.10;;;;;;;;;;109076;1260;25223;-30
2022/11/15 12:33:38;;;;;;;11.60;9.10;;;;;;;;;;109056;1264;22614;-28
2022/11/15 12:36:29;;;;;;;11.00;8.70;;;;;;;;;;109083;1260;23849;-29
2022/11/15 12:39:04;;;;;;;11.40;8.50;;;;;;;;;;109114;1266;22523;-30
2022/11/15 12:41:41;;;;;;;10.80;8.60;;;;;;;;;;109282;1265;22727;-30
2022/11/15 12:44:53;;;;;;;10.90;8.60;;;;;;;;;;109293;1266;22990;-30
2022/11/15 12:47:37;;;;;;;11.50;8.70;;;;;;;;;;109416;1266;22584;-29
2022/11/15 12:50:17;;;;;;;10.70;8.60;;;;;;;;;;109374;1264;22548;-29
2022/11/15 12:53:29;;;;;;;10.50;8.10;;;;;;;;;;109257;1265;23871;-29
2022/11/15 12:56:24;;;;;;;11.90;8.50;;;;;;;;;;109091;1260;22533;-30
2022/11/15 12:59:04;;;;;;;12.70;8.50;;;;;;;;;;109084;1259;22630;-29
2022/11/15 13:02:02;;;;;;;10.90;8.40;;;;;;;;;;109110;1268;22531;-30
2022/11/15 13:04:34;;;;;;;11.40;8.40;;;;;;;;;;109173;1262;22535;-29
2022/11/15 13:07:08;;;;;;;11.20;8.70;;;;;;;;;;109192;1252;22722;-29
2022/11/15 13:09:58;;;;;;;11.20;8.70;;;;;;;;;;109251;1264;22593;-30
2022/11/15 13:13:01;;;;;;;11.10;8.20;;;;;;;;;;109161;1266;23753;-29
2022/11/15 13:15:56;;;;;;;11.40;8.80;;;;;;;;;;109042;1262;22530;-30
2022/11/15 13:18:38;;;;;;;10.80;9.00;;;;;;;;;;109024;1267;25399;-30
2022/11/15 13:24:18;;;;;;;11.90;9.00;;;;;;;;;;108979;1266;22605;-30
2022/11/15 13:26:51;;;;;;;12.70;8.90;;;;;;;;;;109109;1260;22647;-28
2022/11/15 13:29:24;;;;;;;11.50;8.80;;;;;;;;;;109142;1261;22844;-29
2022/11/15 13:31:56;;;;;;;11.60;9.40;;;;;;;;;;109187;1259;22526;-31
2022/11/15 13:34:33;;;;;;;11.40;9.00;;;;;;;;;;109225;1262;23832;-29
2022/11/15 13:37:15;;;;;;;11.40;8.60;;;;;;;;;;109154;1263;22572;-30
2022/11/15 13:39:48;;;;;;;11.70;8.90;;;;;;;;;;109055;1263;22561;-31
2022/11/15 13:42:23;;;;;;;11.00;8.80;;;;;;;;;;109151;1261;22578;-30
2022/11/15 13:45:05;;;;;;;12.80;8.80;;;;;;;;;;109067;1265;22582;-29
2022/11/15 13:47:40;;;;;;;11.60;8.50;;;;;;;;;;109077;1263;22545;-30
2022/11/15 13:50:16;;;;;;;11.60;8.70;;;;;;;;;;109202;1266;22585;-29
2022/11/15 13:52:49;;;;;;;11.20;9.00;;;;;;;;;;109238;1266;22549;-30
2022/11/15 13:55:24;;;;;;;11.10;9.00;;;;;;;;;;109164;1266;22590;-30
2022/11/15 13:58:05;;;;;;;11.20;8.90;;;;;;;;;;109237;1262;22553;-29
2022/11/15 14:00:43;;;;;;;11.30;9.10;;;;;;;;;;109166;1263;22632;-30
2022/11/15 14:03:25;;;;;;;10.60;8.60;;;;;;;;;;109200;1260;22574;-29
2022/11/15 14:06:21;;;;;;;11.60;9.10;;;;;;;;;;109288;1266;22610;-30
2022/11/15 14:09:30;;;;;;;10.70;8.80;;;;;;;;;;109139;1266;23812;-29
2022/11/15 14:12:18;;;;;;;12.30;9.10;;;;;;;;;;109318;1261;22679;-30
2022/11/15 14:14:52;;;;;;;11.30;8.20;;;;;;;;;;109245;1266;22822;-29
2022/11/15 14:17:40;;;;;;;12.20;9.20;;;;;;;;;;109177;1263;22578;-30
2022/11/15 14:20:32;;;;;;;10.70;8.40;;;;;;;;;;109147;1266;22529;-29
2022/11/15 14:23:07;;;;;;;10.70;8.20;;;;;;;;;;109100;1261;22551;-29
2022/11/15 14:25:39;;;;;;;10.80;8.50;;;;;;;;;;109096;1253;22553;-29
2022/11/15 14:28:36;;;;;;;10.60;8.40;;;;;;;;;;109210;1265;22565;-30
2022/11/15 14:31:14;;;;;;;12.50;9.80;;;;;;;;;;109088;1262;24315;-28
2022/11/15 14:33:50;;;;;;;10.80;8.50;;;;;;;;;;109197;1260;22542;-29
2022/11/15 14:36:24;;;;;;;11.10;8.10;;;;;;;;;;109166;1263;24233;-32
2022/11/15 14:38:56;;;;;;;10.80;8.60;;;;;;;;;;109111;1260;22822;-29
2022/11/15 14:41:37;;;;;;;12.00;9.60;;;;;;;;;;109101;1262;22556;-28
2022/11/15 14:44:18;;;;;;;12.20;9.10;;;;;;;;;;109178;1262;25382;-29
2022/11/15 14:46:53;;;;;;;11.50;9.20;;;;;;;;;;109227;1259;23441;-29
2022/11/15 14:49:25;;;;;;;10.50;8.70;;;;;;;;;;109454;1266;22809;-29
2022/11/15 14:51:57;;;;;;;11.40;9.00;;;;;;;;;;109538;1264;24138;-30
2022/11/15 14:54:29;;;;;;;10.60;8.40;;;;;;;;;;109542;1259;22500;-30
2022/11/15 14:57:02;;;;;;;11.30;9.40;;;;;;;;;;109440;1261;23431;-29
2022/11/15 14:59:34;;;;;;;10.80;8.90;;;;;;;;;;109499;1253;22555;-30
2022/11/15 15:02:19;;;;;;;11.40;8.90;;;;;;;;;;109470;1266;23942;-30
2022/11/15 15:04:54;;;;;;;11.20;9.00;;;;;;;;;;109473;1261;22582;-29
2022/11/15 15:07:26;;;;;;;11.40;9.00;;;;;;;;;;109473;1259;23999;-30
2022/11/15 15:09:58;;;;;;;11.10;8.70;;;;;;;;;;109529;1264;22640;-29
2022/11/15 15:12:34;;;;;;;11.90;9.10;;;;;;;;;;109573;1261;22484;-30
2022/11/15 15:15:11;;;;;;;10.60;8.70;;;;;;;;;;109559;1266;23078;-29
2022/11/15 15:17:44;;;;;;;10.80;8.80;;;;;;;;;;109354;1264;22768;-30
2022/11/15 15:20:17;;;;;;;12.70;9.60;;;;;;;;;;109410;1268;23814;-30
2022/11/15 15:22:49;;;;;;;11.60;9.70;;;;;;;;;;109421;1256;22712;-29
2022/11/15 15:25:29;;;;;;;12.80;9.70;;;;;;;;;;109372;1262;22558;-29
2022/11/15 15:28:04;;;;;;;11.40;9.20;;;;;;;;;;109648;1253;22556;-29
2022/11/15 15:30:37;;;;;;;11.40;9.10;;;;;;;;;;109479;1260;22611;-29
2022/11/15 15:33:12;;;;;;;12.50;10.40;;;;;;;;;;109550;1263;23937;-29
2022/11/15 15:35:44;;;;;;;12.00;9.40;;;;;;;;;;109527;1259;22524;-29